createdAt,value
2018-10-07T11:55:54.726Z,42.90
2018-10-07T11:58:22.421Z,43.50
2018-10-07T12:00:50.062Z,43.00
2018-10-07T12:03:17.807Z,42.40
2018-10-07T12:05:45.375Z,41.90
2018-10-07T12:08:12.994Z,41.90
2018-10-07T12:10:40.646Z,42.20
2018-10-07T12:13:08.282Z,42.30
2018-10-07T12:15:35.876Z,43.10
2018-10-07T12:18:03.446Z,42.80
2018-10-07T12:20:31.138Z,42.90
2018-10-07T12:22:58.730Z,42.80
2018-10-07T12:25:26.459Z,43.20
2018-10-07T12:27:54.027Z,43.80
2018-10-07T12:30:21.586Z,43.50
2018-10-07T12:32:49.194Z,42.80
2018-10-07T12:35:16.815Z,43.10
2018-10-07T12:37:44.435Z,43.50
2018-10-07T12:40:12.030Z,43.20
2018-10-07T12:42:39.786Z,43.40
2018-10-07T12:45:07.410Z,43.20
2018-10-07T12:47:35.046Z,43.20
2018-10-07T12:50:02.677Z,43.70
2018-10-07T12:52:30.311Z,43.70
2018-10-07T12:54:57.950Z,43.70
2018-10-07T12:57:25.612Z,44.00
2018-10-07T12:59:53.283Z,44.30
2018-10-07T13:02:20.935Z,43.80
2018-10-07T13:04:48.586Z,44.70
2018-10-07T13:07:16.175Z,46.60
2018-10-07T13:09:43.918Z,46.50
2018-10-07T13:12:11.495Z,46.40
2018-10-07T13:14:39.159Z,46.10
2018-10-07T13:17:07.053Z,46.40
2018-10-07T13:19:35.051Z,47.00
2018-10-07T13:22:03.184Z,47.20
2018-10-07T13:24:31.739Z,47.80
2018-10-07T13:27:00.375Z,48.20
2018-10-07T13:29:28.911Z,48.80
2018-10-07T13:31:56.610Z,49.50
2018-10-07T13:34:24.810Z,50.40
2018-10-07T13:36:52.539Z,51.20
2018-10-07T13:39:20.149Z,51.70
2018-10-07T13:41:47.761Z,51.90
2018-10-07T13:44:15.807Z,52.00
2018-10-07T13:46:43.419Z,52.10
2018-10-07T13:49:11.019Z,52.60
2018-10-07T13:51:38.682Z,53.30
2018-10-07T13:54:07.230Z,53.50
2018-10-07T13:56:34.923Z,53.80
2018-10-07T13:59:03.234Z,54.10
2018-10-07T14:01:30.962Z,54.40
2018-10-07T14:03:58.534Z,54.90
2018-10-07T14:06:26.225Z,55.20
2018-10-07T14:08:53.886Z,55.60
2018-10-07T14:11:21.494Z,56.10
2018-10-07T14:13:49.062Z,56.80
2018-10-07T14:16:16.654Z,57.30
2018-10-07T14:18:44.263Z,57.60
2018-10-07T14:21:11.883Z,57.70
2018-10-07T14:23:39.475Z,57.90
2018-10-07T14:26:07.882Z,58.00
2018-10-07T14:28:35.591Z,58.50
2018-10-07T14:31:03.239Z,58.70
2018-10-07T14:33:30.802Z,58.80
2018-10-07T14:35:58.540Z,59.50
2018-10-07T14:38:26.143Z,59.40
2018-10-07T14:40:53.766Z,59.60
2018-10-07T14:43:21.471Z,60.00
2018-10-07T14:45:49.186Z,60.00
2018-10-07T14:48:16.775Z,60.70
2018-10-07T14:50:45.283Z,61.30
2018-10-07T14:53:12.951Z,61.80
2018-10-07T14:55:41.259Z,62.20
2018-10-07T14:58:09.463Z,62.70
2018-10-07T15:00:37.051Z,62.60
2018-10-07T15:03:05.139Z,63.10
2018-10-07T15:05:32.774Z,63.30
2018-10-07T15:08:00.402Z,63.20
2018-10-07T15:10:28.042Z,63.80
2018-10-07T15:12:55.694Z,64.20
2018-10-07T15:15:23.278Z,64.60
2018-10-07T15:17:52.043Z,64.90
2018-10-07T15:20:19.704Z,65.30
2018-10-07T15:22:48.043Z,65.10
2018-10-07T15:25:15.819Z,65.30
2018-10-07T15:27:43.620Z,66.00
2018-10-07T15:30:11.305Z,66.20
2018-10-07T15:32:39.487Z,66.70
2018-10-07T15:35:07.191Z,66.60
2018-10-07T15:37:34.780Z,66.80
2018-10-07T15:40:02.579Z,67.30
2018-10-07T15:42:30.191Z,67.30
2018-10-07T15:44:58.487Z,67.70
2018-10-07T15:47:26.840Z,68.20
2018-10-07T15:49:54.379Z,68.40
2018-10-07T15:52:22.131Z,68.90
2018-10-07T15:54:49.716Z,69.20
2018-10-07T15:57:17.367Z,70.00
2018-10-07T15:59:44.915Z,70.40
2018-10-07T16:02:12.566Z,70.40
2018-10-07T16:04:41.577Z,70.20
2018-10-07T16:07:09.203Z,70.90
2018-10-07T16:09:36.887Z,71.30
2018-10-07T16:12:05.183Z,71.40
2018-10-07T16:14:34.088Z,72.10
2018-10-07T16:17:02.379Z,72.60
2018-10-07T16:19:30.011Z,72.70
2018-10-07T16:21:57.679Z,73.10
2018-10-07T16:24:25.840Z,73.80
2018-10-07T16:26:53.460Z,74.10
2018-10-07T16:29:21.077Z,74.40
2018-10-07T16:31:49.145Z,74.80
2018-10-07T16:34:16.807Z,75.10
2018-10-07T16:36:44.500Z,75.90
2018-10-07T16:39:12.273Z,75.90
2018-10-07T16:41:40.789Z,76.30
2018-10-07T16:44:09.010Z,77.10
2018-10-07T16:46:36.699Z,77.60
2018-10-07T16:49:04.419Z,77.50
2018-10-07T16:51:32.063Z,77.20
2018-10-07T16:53:59.678Z,77.80
2018-10-07T16:56:27.786Z,78.40
2018-10-07T16:58:56.131Z,78.30
2018-10-07T17:01:23.723Z,78.70
2018-10-07T17:03:51.456Z,78.50
2018-10-07T17:06:20.758Z,78.50
2018-10-07T17:08:48.533Z,78.70
2018-10-07T17:11:16.509Z,79.50
2018-10-07T17:13:44.311Z,79.60
2018-10-07T17:16:12.047Z,79.70
2018-10-07T17:18:39.619Z,80.40
2018-10-07T17:21:07.404Z,80.80
2018-10-07T17:23:35.653Z,81.10
2018-10-07T17:26:03.390Z,81.50
2018-10-07T17:28:30.999Z,82.00
2018-10-07T17:30:58.605Z,81.80
2018-10-07T17:33:26.308Z,82.50
2018-10-07T17:35:54.055Z,82.50
2018-10-07T17:38:21.826Z,83.00
2018-10-07T17:40:49.411Z,83.00
2018-10-07T17:43:17.031Z,83.20
2018-10-07T17:45:44.640Z,83.30
2018-10-07T17:48:13.264Z,83.90
2018-10-07T17:50:40.890Z,84.30
2018-10-07T17:53:08.692Z,84.00
2018-10-07T17:55:36.646Z,84.40
2018-10-07T17:58:04.415Z,84.20
2018-10-07T18:00:32.278Z,84.30
2018-10-07T18:03:00.277Z,84.20
2018-10-07T18:05:27.698Z,85.10
2018-10-07T18:07:55.390Z,84.90
2018-10-07T18:10:23.318Z,85.40
2018-10-07T18:12:50.940Z,85.40
2018-10-07T18:15:18.588Z,85.60
2018-10-07T18:17:46.155Z,85.60
2018-10-07T18:20:13.844Z,85.70
2018-10-07T18:22:41.572Z,86.10
2018-10-07T18:25:09.212Z,86.30
2018-10-07T18:27:37.010Z,86.20
2018-10-07T18:30:04.754Z,86.50
2018-10-07T18:32:32.431Z,86.60
2018-10-07T18:35:00.736Z,86.40
2018-10-07T18:37:28.457Z,87.10
2018-10-07T18:39:56.280Z,86.90
2018-10-07T18:42:24.046Z,86.80
2018-10-07T18:44:51.755Z,86.80
2018-10-07T18:47:19.390Z,86.90
2018-10-07T18:49:46.996Z,86.70
2018-10-07T18:52:15.523Z,86.60
2018-10-07T18:54:43.253Z,86.30
2018-10-07T18:57:10.910Z,86.60
2018-10-07T18:59:39.227Z,86.80
2018-10-07T19:02:06.974Z,87.00
2018-10-07T19:04:34.623Z,86.50
2018-10-07T19:07:02.231Z,86.60
2018-10-07T19:09:29.836Z,86.80
2018-10-07T19:11:57.463Z,86.80
2018-10-07T19:14:25.250Z,87.10
2018-10-07T19:16:52.855Z,87.30
2018-10-07T19:19:20.688Z,87.00
2018-10-07T19:21:48.761Z,86.50
2018-10-07T19:24:17.073Z,87.00
2018-10-07T19:26:44.720Z,86.50
2018-10-07T19:29:13.200Z,86.90
2018-10-07T19:31:47.715Z,87.00
2018-10-07T19:34:15.817Z,86.30
2018-10-07T19:36:45.495Z,86.30
2018-10-07T19:39:13.705Z,86.20
2018-10-07T19:41:41.464Z,86.40
2018-10-07T19:44:09.166Z,85.90
2018-10-07T19:46:37.050Z,86.10
2018-10-07T19:49:05.221Z,85.40
2018-10-07T19:51:33.115Z,85.70
2018-10-07T19:54:03.102Z,85.50
2018-10-07T19:56:32.824Z,85.80
2018-10-07T19:59:00.648Z,86.80
2018-10-07T20:01:28.304Z,85.90
2018-10-07T20:03:55.958Z,86.20
2018-10-07T20:06:23.752Z,86.30
2018-10-07T20:08:51.480Z,86.00
2018-10-07T20:11:19.256Z,85.90
2018-10-07T20:13:47.076Z,86.20
2018-10-07T20:16:14.860Z,86.50
2018-10-07T20:18:43.085Z,87.10
2018-10-07T20:21:10.823Z,87.00
2018-10-07T20:23:38.583Z,87.10
2018-10-07T20:26:06.997Z,87.00
2018-10-07T20:28:34.809Z,87.20
2018-10-07T20:31:02.386Z,86.70
2018-10-07T20:33:30.051Z,86.90
2018-10-07T20:35:57.696Z,87.20
2018-10-07T20:38:26.211Z,87.20
2018-10-07T20:40:54.019Z,86.80
2018-10-07T20:43:21.742Z,86.60
2018-10-07T20:45:49.364Z,87.00
2018-10-07T20:48:16.959Z,86.70
2018-10-07T20:50:45.909Z,86.90
2018-10-07T20:53:13.469Z,87.00
2018-10-07T20:55:41.363Z,87.00
2018-10-07T20:58:09.371Z,86.80
2018-10-07T21:00:36.992Z,86.90
2018-10-07T21:03:05.803Z,86.80
2018-10-07T21:05:33.512Z,86.50
2018-10-07T21:08:01.127Z,86.80
2018-10-07T21:10:29.235Z,87.30
2018-10-07T21:12:56.919Z,87.90
2018-10-07T21:15:24.571Z,88.10
2018-10-07T21:17:52.259Z,88.60
2018-10-07T21:20:20.059Z,89.10
2018-10-07T21:22:47.685Z,88.90
2018-10-07T21:25:15.299Z,89.10
2018-10-07T21:27:42.963Z,89.00
2018-10-07T21:30:10.663Z,89.20
2018-10-07T21:32:38.299Z,88.80
2018-10-07T21:35:06.390Z,89.20
2018-10-07T21:37:34.373Z,89.00
2018-10-07T21:40:02.259Z,89.10
2018-10-07T21:42:29.955Z,89.50
2018-10-07T21:44:57.635Z,89.30
2018-10-07T21:47:25.295Z,89.40
2018-10-07T21:49:52.989Z,89.20
2018-10-07T21:52:20.766Z,89.50
2018-10-07T21:54:48.271Z,89.30
2018-10-07T21:57:15.913Z,89.20
2018-10-07T21:59:43.607Z,90.00
2018-10-07T22:02:11.271Z,89.80
2018-10-07T22:04:38.882Z,90.00
2018-10-07T22:07:06.964Z,90.10
2018-10-07T22:09:34.645Z,90.10
2018-10-07T22:12:02.418Z,90.20
2018-10-07T22:14:30.024Z,90.50
2018-10-07T22:16:57.690Z,90.60
2018-10-07T22:19:25.326Z,90.90
2018-10-07T22:21:52.928Z,91.00
2018-10-07T22:24:20.555Z,91.10
2018-10-07T22:26:48.166Z,91.30
2018-10-07T22:29:15.749Z,91.20
2018-10-07T22:31:43.406Z,91.70
2018-10-07T22:34:11.027Z,91.60
2018-10-07T22:36:38.710Z,91.50
2018-10-07T22:39:07.174Z,91.70
2018-10-07T22:41:34.783Z,91.80
2018-10-07T22:44:02.405Z,92.10
2018-10-07T22:46:30.016Z,91.80
2018-10-07T22:48:57.631Z,91.90
2018-10-07T22:51:25.213Z,91.70
2018-10-07T22:53:52.771Z,92.00
2018-10-07T22:56:20.437Z,92.10
2018-10-07T22:58:48.071Z,92.20
2018-10-07T23:01:15.678Z,92.30
2018-10-07T23:03:43.483Z,92.50
2018-10-07T23:06:11.106Z,92.40
2018-10-07T23:08:38.711Z,92.70
2018-10-07T23:11:06.335Z,92.50
2018-10-07T23:13:33.927Z,92.50
2018-10-07T23:16:01.597Z,92.70
2018-10-07T23:18:29.212Z,92.80
2018-10-07T23:20:56.780Z,93.00
2018-10-07T23:23:24.443Z,92.70
2018-10-07T23:25:52.106Z,93.10
2018-10-07T23:28:19.707Z,93.00
2018-10-07T23:30:47.336Z,93.10
2018-10-07T23:33:14.992Z,93.20
2018-10-07T23:35:42.643Z,93.30
2018-10-07T23:38:10.243Z,93.40
2018-10-07T23:40:37.854Z,93.40
2018-10-07T23:43:05.808Z,93.70
2018-10-07T23:45:33.460Z,93.40
2018-10-07T23:48:01.060Z,93.20
2018-10-07T23:50:28.621Z,93.40
2018-10-07T23:52:56.310Z,93.40
2018-10-07T23:55:23.900Z,93.50
2018-10-07T23:57:51.515Z,93.50
